Time;durP1;ratioP1;P1;durP2;ratioP2;P2;SDS_P1;SDS_P2;PMS_P1;PMS_P2;Temp;Humidity;BMP_temperature;BMP_pressure;BME280_temperature;BME280_humidity;BME280_pressure;Samples;Min_cycle;Max_cycle;Signal;HPM_P1;HPM_P2
2024/04/12 00:01:13;;;;;;;9.05;3.80;;;;;;;15.87;80.84;101690.56;5014925;28;20048;-74
2024/04/12 00:04:20;;;;;;;6.13;4.25;;;;;;;15.63;81.97;101697.16;5014864;28;20052;-77
2024/04/12 00:07:26;;;;;;;8.98;4.60;;;;;;;15.96;80.97;101690.63;5014671;28;20077;-76
2024/04/12 00:10:31;;;;;;;13.93;6.13;;;;;;;15.86;80.70;101688.84;5014649;28;20053;-75
2024/04/12 00:13:40;;;;;;;13.15;7.40;;;;;;;15.79;81.00;101687.69;5014550;28;20068;-76
2024/04/12 00:16:56;;;;;;;11.23;6.47;;;;;;;15.74;81.62;101684.53;5014463;28;20052;-76
2024/04/12 00:20:01;;;;;;;11.25;6.10;;;;;;;15.64;81.56;101687.19;5014506;28;20488;-76
2024/04/12 00:23:06;;;;;;;12.20;7.40;;;;;;;15.53;82.10;101676.44;5023816;28;20049;-76
2024/04/12 00:26:11;;;;;;;16.55;7.45;;;;;;;15.55;82.43;101678.00;5013200;28;20159;-76
2024/04/12 00:29:25;;;;;;;9.13;5.40;;;;;;;15.69;81.00;101676.81;5014228;28;20389;-77
2024/04/12 00:32:29;;;;;;;9.32;4.68;;;;;;;15.71;80.91;101682.06;5012946;28;20077;-76
2024/04/12 00:35:40;;;;;;;6.13;4.65;;;;;;;15.64;81.36;101684.47;5014053;28;20045;-76
2024/04/12 00:38:46;;;;;;;9.02;4.50;;;;;;;15.82;80.58;101682.00;5014213;28;20057;-77
2024/04/12 00:41:51;;;;;;;11.27;6.05;;;;;;;15.63;80.76;101681.91;5024581;28;20052;-76
2024/04/12 00:44:57;;;;;;;6.60;4.22;;;;;;;15.49;81.41;101686.69;5018120;28;20118;-76
2024/04/12 00:48:07;;;;;;;9.38;4.35;;;;;;;15.42;81.03;101688.19;5013675;28;20053;-74
2024/04/12 00:51:17;;;;;;;7.35;4.03;;;;;;;15.51;81.20;101691.94;5013947;28;20053;-76
2024/04/12 00:54:21;;;;;;;7.30;4.28;;;;;;;15.62;80.32;101686.47;5001894;28;20065;-76
2024/04/12 00:57:26;;;;;;;8.25;4.05;;;;;;;15.66;80.07;101687.03;5013931;28;20057;-76
2024/04/12 01:00:35;;;;;;;7.90;4.15;;;;;;;15.87;79.48;101691.44;5029272;28;20064;-76
2024/04/12 01:03:49;;;;;;;9.02;4.30;;;;;;;15.82;79.47;101691.00;5033327;28;20117;-77
2024/04/12 01:06:53;;;;;;;8.13;4.10;;;;;;;15.54;80.50;101687.13;5033499;28;20408;-76
2024/04/12 01:09:58;;;;;;;5.72;3.92;;;;;;;15.53;81.08;101684.53;5044036;28;20495;-76
2024/04/12 01:13:03;;;;;;;5.90;3.85;;;;;;;15.35;81.31;101683.44;5033490;28;20112;-77
2024/04/12 01:16:10;;;;;;;6.82;4.03;;;;;;;15.34;81.33;101687.13;5032840;28;20064;-77
2024/04/12 01:19:15;;;;;;;9.88;4.45;;;;;;;15.22;82.11;101677.34;5033024;28;20048;-75
2024/04/12 01:22:20;;;;;;;7.05;5.00;;;;;;;15.24;81.64;101676.22;5033122;28;20052;-75
2024/04/12 01:25:31;;;;;;;6.28;4.20;;;;;;;15.32;81.14;101679.13;5033170;28;20041;-75
2024/04/12 01:28:43;;;;;;;6.13;4.20;;;;;;;15.10;81.94;101671.16;5032873;28;20057;-75
2024/04/12 01:31:53;;;;;;;7.63;4.60;;;;;;;15.19;80.85;101670.34;5033080;28;20056;-75
2024/04/12 01:34:57;;;;;;;7.15;3.95;;;;;;;15.18;81.11;101671.38;5033030;28;20385;-76
2024/04/12 01:38:17;;;;;;;5.95;4.03;;;;;;;15.06;81.39;101668.84;5033059;28;20464;-75
2024/04/12 01:41:33;;;;;;;10.20;4.78;;;;;;;15.05;81.31;101670.69;5031690;28;20045;-75
2024/04/12 01:44:38;;;;;;;5.55;3.95;;;;;;;15.06;81.35;101669.69;5032703;28;20046;-75
2024/04/12 01:47:45;;;;;;;7.22;4.28;;;;;;;15.18;81.08;101676.78;5031714;28;20069;-75
2024/04/12 01:50:52;;;;;;;7.47;3.90;;;;;;;15.25;80.73;101682.50;5032290;28;20109;-77
2024/04/12 01:53:57;;;;;;;4.82;3.65;;;;;;;15.21;81.02;101675.66;5033170;28;20057;-75
2024/04/12 01:57:03;;;;;;;9.57;4.50;;;;;;;15.39;80.37;101676.75;5031878;28;20048;-75
2024/04/12 02:00:11;;;;;;;11.55;4.43;;;;;;;15.29;80.53;101679.41;5044182;28;20072;-75
2024/04/12 02:03:17;;;;;;;6.18;4.00;;;;;;;15.26;80.53;101670.69;5040586;28;20052;-75
2024/04/12 02:06:23;;;;;;;6.82;4.05;;;;;;;15.20;80.65;101672.09;5040502;28;20055;-75
2024/04/12 02:09:28;;;;;;;14.48;3.95;;;;;;;15.32;79.69;101673.72;5052847;28;20064;-77
2024/04/12 02:12:36;;;;;;;9.57;4.60;;;;;;;15.27;80.28;101669.69;5052849;28;20060;-77
2024/04/12 02:15:41;;;;;;;7.68;4.28;;;;;;;15.27;80.31;101675.09;5040736;28;20495;-77
2024/04/12 02:18:45;;;;;;;7.85;4.22;;;;;;;15.26;80.14;101676.09;5052367;28;20423;-75
2024/04/12 02:21:50;;;;;;;6.35;3.88;;;;;;;15.51;79.11;101683.81;5052362;28;20051;-76
2024/04/12 02:24:56;;;;;;;8.77;4.43;;;;;;;15.17;80.42;101680.47;5052590;28;20072;-75
2024/04/12 02:28:07;;;;;;;6.78;3.95;;;;;;;15.07;80.49;101675.97;5051453;28;20407;-75
2024/04/12 02:31:12;;;;;;;8.95;4.18;;;;;;;15.07;80.63;101684.94;5052565;28;20384;-77
2024/04/12 02:34:17;;;;;;;7.40;4.15;;;;;;;15.08;81.05;101685.81;5052540;28;20356;-75
2024/04/12 02:37:21;;;;;;;9.55;4.10;;;;;;;15.13;80.93;101675.44;5052423;28;20499;-75
2024/04/12 02:40:26;;;;;;;7.35;3.72;;;;;;;15.13;80.74;101679.00;5052651;28;20381;-77
2024/04/12 02:43:32;;;;;;;6.70;3.88;;;;;;;14.91;81.04;101679.13;5052755;28;20048;-77
2024/04/12 02:46:36;;;;;;;5.85;4.00;;;;;;;15.11;80.93;101688.25;5055355;28;20048;-75
2024/04/12 02:49:41;;;;;;;6.88;3.78;;;;;;;15.13;80.65;101694.38;5055491;28;20052;-75
2024/04/12 02:52:46;;;;;;;8.63;4.45;;;;;;;15.16;80.22;101694.97;5055834;28;20040;-75
2024/04/12 02:56:09;;;;;;;6.60;3.95;;;;;;;15.26;79.89;101689.63;5055735;28;20412;-76
2024/04/12 02:59:14;;;;;;;7.47;3.80;;;;;;;15.11;80.58;101691.78;5055232;28;20056;-75
2024/04/12 03:02:18;;;;;;;7.38;4.28;;;;;;;15.10;80.35;101689.22;5031842;28;20491;-75
2024/04/12 03:05:25;;;;;;;12.05;5.20;;;;;;;15.23;79.63;101688.06;5043339;28;20052;-75
2024/04/12 03:08:32;;;;;;;6.35;3.78;;;;;;;15.31;79.85;101688.22;5043070;28;20056;-77
2024/04/12 03:11:37;;;;;;;6.43;3.65;;;;;;;15.40;79.04;101701.00;5055848;28;20459;-75
2024/04/12 03:14:41;;;;;;;7.35;4.00;;;;;;;15.29;79.65;101683.94;5055726;28;20175;-77
2024/04/12 03:17:47;;;;;;;6.43;3.88;;;;;;;15.18;79.86;101684.88;5042897;28;20055;-76
2024/04/12 03:20:52;;;;;;;7.10;3.97;;;;;;;15.09;80.01;101693.78;5054978;28;20407;-75
2024/04/12 03:23:57;;;;;;;6.07;3.78;;;;;;;15.24;79.85;101683.47;5055404;28;20068;-76
2024/04/12 03:27:01;;;;;;;6.88;4.25;;;;;;;15.12;79.92;101685.41;5055292;28;20056;-76
2024/04/12 03:30:15;;;;;;;5.88;3.92;;;;;;;14.71;81.22;101691.63;5055265;28;20380;-76
2024/04/12 03:33:19;;;;;;;;;;;;;;;14.81;81.30;101692.53;5055679;28;20075;-77
2024/04/12 03:39:46;;;;;;;6.53;4.32;;;;;;;15.05;80.14;101683.34;5055167;28;20491;-76
2024/04/12 03:42:50;;;;;;;7.82;4.25;;;;;;;14.76;80.92;101686.66;5054877;28;20052;-76
2024/04/12 03:45:59;;;;;;;5.78;3.67;;;;;;;15.03;80.17;101683.50;5055055;28;20506;-76
2024/04/12 03:49:03;;;;;;;7.25;4.38;;;;;;;15.06;79.55;101677.81;5054991;28;20060;-76
2024/04/12 03:52:13;;;;;;;12.30;4.25;;;;;;;15.07;79.79;101679.53;5054872;28;20051;-76
2024/04/12 03:55:18;;;;;;;6.50;4.15;;;;;;;14.97;79.45;101674.06;5054476;28;20112;-75
2024/04/12 03:58:24;;;;;;;6.05;4.18;;;;;;;15.15;79.46;101678.88;5053952;28;20068;-75
2024/04/12 04:01:31;;;;;;;8.45;4.75;;;;;;;15.01;79.85;101685.44;5054647;28;20503;-75
2024/04/12 04:04:37;;;;;;;8.05;4.18;;;;;;;15.03;79.34;101691.59;5054594;28;20048;-76
2024/04/12 04:07:46;;;;;;;8.38;4.07;;;;;;;15.12;79.18;101684.53;5054578;28;20503;-75
2024/04/12 04:10:54;;;;;;;10.57;4.38;;;;;;;14.87;80.37;101683.94;5054388;28;20048;-75
2024/04/12 04:13:58;;;;;;;8.20;4.07;;;;;;;14.81;80.71;101680.91;5062369;28;20522;-75
2024/04/12 04:17:03;;;;;;;7.97;4.47;;;;;;;14.91;80.13;101684.53;5074157;28;20040;-77
2024/04/12 04:20:10;;;;;;;5.88;4.20;;;;;;;14.94;79.59;101685.13;5074564;28;20164;-77
2024/04/12 04:23:17;;;;;;;6.40;4.30;;;;;;;14.79;80.35;101685.53;5074151;28;20051;-77
2024/04/12 04:26:21;;;;;;;6.78;4.05;;;;;;;14.83;80.02;101692.44;5074048;28;20107;-75
2024/04/12 04:29:26;;;;;;;5.13;3.85;;;;;;;14.79;80.35;101690.94;5061991;28;20399;-75
2024/04/12 04:32:30;;;;;;;8.38;3.70;;;;;;;14.69;81.09;101690.88;5073850;28;20502;-75
2024/04/12 04:35:35;;;;;;;6.95;3.80;;;;;;;14.90;80.13;101690.91;5061576;28;20051;-74
2024/04/12 04:38:39;;;;;;;10.68;4.28;;;;;;;14.92;79.51;101692.50;5073939;28;20388;-77
2024/04/12 04:41:47;;;;;;;12.80;4.10;;;;;;;15.08;78.92;101700.19;5074029;28;20379;-77
2024/04/12 04:44:52;;;;;;;6.82;4.22;;;;;;;15.05;79.19;101699.56;5073805;28;20055;-75
2024/04/12 04:47:57;;;;;;;6.95;4.30;;;;;;;14.68;80.54;101705.41;5073630;28;20383;-75
2024/04/12 04:51:02;;;;;;;8.55;4.53;;;;;;;14.84;80.15;101708.50;5071648;28;20051;-75
2024/04/12 04:54:11;;;;;;;8.38;3.83;;;;;;;14.90;79.77;101717.97;5061302;28;20056;-75
2024/04/12 04:57:15;;;;;;;6.10;3.83;;;;;;;15.02;79.34;101716.06;5061337;28;20115;-75
2024/04/12 05:00:22;;;;;;;8.25;4.68;;;;;;;15.19;79.26;101713.63;5072872;28;20059;-74
2024/04/12 05:03:27;;;;;;;5.80;4.05;;;;;;;15.36;78.46;101715.75;5051905;28;20483;-77
2024/04/12 05:06:32;;;;;;;19.67;4.85;;;;;;;15.49;77.87;101712.88;5041201;28;20159;-75
2024/04/12 05:09:37;;;;;;;6.75;4.45;;;;;;;15.69;77.10;101720.13;5053160;28;20048;-75
2024/04/12 05:12:42;;;;;;;7.07;4.38;;;;;;;16.16;75.78;101726.75;5031689;28;20056;-75
2024/04/12 05:15:50;;;;;;;11.68;4.22;;;;;;;16.44;74.17;101734.13;5031450;28;20056;-76
2024/04/12 05:18:54;;;;;;;8.25;4.55;;;;;;;16.44;74.12;101727.84;5050400;28;20045;-75
2024/04/12 05:22:02;;;;;;;9.93;5.57;;;;;;;16.16;74.41;101727.63;5051137;28;20044;-75
2024/04/12 05:25:13;;;;;;;10.13;5.25;;;;;;;16.66;72.50;101730.34;5051094;28;20052;-77
2024/04/12 05:28:19;;;;;;;9.30;4.80;;;;;;;16.64;73.08;101730.47;5050675;28;20470;-77
2024/04/12 05:31:29;;;;;;;11.38;5.20;;;;;;;16.97;70.97;101721.09;5032407;28;21515;-76
2024/04/12 05:34:37;;;;;;;11.52;5.38;;;;;;;16.47;72.71;101728.41;5030085;28;20057;-77
2024/04/12 05:37:43;;;;;;;7.60;4.78;;;;;;;16.76;72.09;101726.63;5040969;28;20044;-76
2024/04/12 05:40:53;;;;;;;10.57;4.47;;;;;;;16.77;72.03;101732.91;5040918;28;20163;-75
2024/04/12 05:43:57;;;;;;;6.38;4.05;;;;;;;16.98;71.00;101730.94;5064270;28;20037;-76
2024/04/12 05:47:09;;;;;;;9.50;4.13;;;;;;;16.82;71.04;101739.63;5065419;28;20056;-77
2024/04/12 05:50:14;;;;;;;7.20;3.90;;;;;;;17.14;70.49;101736.66;5066896;28;20059;-76
2024/04/12 05:53:23;;;;;;;8.80;5.43;;;;;;;17.53;69.15;101738.34;5072717;28;20055;-77
2024/04/12 05:56:29;;;;;;;10.32;5.18;;;;;;;17.91;67.70;101745.56;5072955;28;20051;-76
2024/04/12 05:59:34;;;;;;;10.73;5.50;;;;;;;18.25;66.51;101739.53;5071480;28;20059;-76
2024/04/12 06:02:43;;;;;;;10.50;4.43;;;;;;;18.45;65.71;101743.88;5052588;28;20049;-80
2024/04/12 06:05:57;;;;;;;7.88;4.53;;;;;;;18.54;65.73;101753.91;5029721;28;20041;-80
2024/04/12 06:09:25;;;;;;;11.45;5.00;;;;;;;18.53;66.31;101752.16;5049810;28;20049;-76
2024/04/12 06:12:33;;;;;;;15.30;4.43;;;;;;;18.57;66.09;101753.56;5053250;28;20067;-76
2024/04/12 06:15:38;;;;;;;10.00;4.70;;;;;;;18.52;65.83;101754.03;5040433;28;20056;-76
2024/04/12 06:18:45;;;;;;;13.40;4.70;;;;;;;18.75;65.67;101755.31;5052852;28;20397;-77
2024/04/12 06:21:50;;;;;;;10.88;4.95;;;;;;;19.48;63.57;101754.19;5056504;28;20055;-77
2024/04/12 06:24:55;;;;;;;7.82;4.30;;;;;;;19.79;62.02;101761.91;5044694;28;20396;-76
2024/04/12 06:28:01;;;;;;;10.25;4.07;;;;;;;19.51;62.80;101763.91;5056782;28;20487;-76
2024/04/12 06:31:06;;;;;;;10.23;4.25;;;;;;;19.50;63.28;101762.22;5074409;28;20499;-76
2024/04/12 06:34:16;;;;;;;13.20;5.38;;;;;;;19.73;62.76;101757.94;5063984;28;20059;-76
2024/04/12 06:37:21;;;;;;;14.98;5.88;;;;;;;19.86;62.32;101757.50;5056591;28;20067;-77
2024/04/12 06:40:31;;;;;;;15.18;5.80;;;;;;;20.16;60.89;101765.19;5056374;28;20392;-75
2024/04/12 06:43:35;;;;;;;9.18;4.90;;;;;;;20.09;61.68;101766.88;5056550;28;20052;-75
2024/04/12 06:46:44;;;;;;;16.15;5.15;;;;;;;20.07;62.48;101763.44;5056180;28;20056;-75
2024/04/12 06:52:22;;;;;;;8.65;4.07;;;;;;;20.30;62.08;101763.75;5055723;28;20029;-74
2024/04/12 06:55:30;;;;;;;11.00;4.07;;;;;;;20.39;61.99;101768.25;5056014;28;20052;-76
2024/04/12 06:58:38;;;;;;;10.90;5.03;;;;;;;20.44;62.47;101763.16;5055915;28;20061;-77
2024/04/12 07:01:43;;;;;;;9.93;5.38;;;;;;;20.69;62.12;101765.78;5016285;28;20052;-75
2024/04/12 07:04:48;;;;;;;10.18;5.47;;;;;;;20.74;61.89;101770.75;5021065;28;20053;-75
2024/04/12 07:07:52;;;;;;;9.75;4.55;;;;;;;20.76;61.71;101772.28;5035997;28;20041;-76
2024/04/12 07:10:59;;;;;;;7.90;4.28;;;;;;;20.92;62.17;101773.34;5029516;28;20044;-74
2024/04/12 07:14:03;;;;;;;10.50;4.30;;;;;;;21.05;61.95;101776.47;5031047;28;20049;-73
2024/04/12 07:17:26;;;;;;;7.15;3.47;;;;;;;21.33;61.83;101773.28;5033386;28;20412;-74
2024/04/12 07:20:38;;;;;;;6.38;3.33;;;;;;;22.01;59.63;101770.19;5033150;28;20052;-76
2024/04/12 07:23:46;;;;;;;5.70;3.30;;;;;;;23.09;56.78;101769.38;5026992;28;20045;-75
2024/04/12 07:26:54;;;;;;;4.90;3.03;;;;;;;25.54;47.87;101767.09;5021025;28;20071;-75
2024/04/12 07:29:59;;;;;;;7.85;3.38;;;;;;;27.85;41.36;101775.38;5027310;28;20400;-73
2024/04/12 07:33:05;;;;;;;5.72;2.80;;;;;;;30.27;37.37;101782.41;5013651;28;20064;-75
2024/04/12 07:36:16;;;;;;;6.55;2.85;;;;;;;32.23;33.97;101784.31;5020611;28;20048;-77
2024/04/12 07:39:23;;;;;;;6.25;2.70;;;;;;;34.02;31.66;101778.97;5025165;28;20514;-78
2024/04/12 07:42:28;;;;;;;4.97;2.67;;;;;;;35.42;29.09;101783.91;5031911;28;20535;-78
2024/04/12 07:45:37;;;;;;;6.00;2.50;;;;;;;35.78;27.43;101793.47;5034116;28;20072;-77
2024/04/12 07:48:42;;;;;;;6.10;2.17;;;;;;;36.64;26.02;101794.13;5034388;28;20052;-77
2024/04/12 07:51:47;;;;;;;4.97;2.65;;;;;;;37.17;24.96;101803.03;5030681;28;20052;-77
2024/04/12 07:54:53;;;;;;;6.18;1.90;;;;;;;38.13;23.97;101803.13;5033658;28;20056;-77
2024/04/12 07:58:00;;;;;;;5.00;1.95;;;;;;;38.44;23.95;101817.97;5034470;28;20053;-78
2024/04/12 08:01:10;;;;;;;4.70;2.08;;;;;;;37.87;24.97;101817.47;5073038;28;20169;-80
2024/04/12 08:04:25;;;;;;;6.50;2.17;;;;;;;38.70;23.84;101813.09;5052815;28;20048;-79
2024/04/12 08:07:31;;;;;;;3.95;1.80;;;;;;;38.60;24.22;101816.78;5059837;28;20056;-79
2024/04/12 08:10:41;;;;;;;5.68;1.92;;;;;;;39.96;22.94;101820.81;5054255;28;20072;-78
2024/04/12 08:13:50;;;;;;;5.53;2.50;;;;;;;39.62;23.39;101809.59;5059772;28;20044;-79
2024/04/12 08:16:55;;;;;;;5.25;3.00;;;;;;;40.07;23.03;101814.00;5054043;28;20044;-78
2024/04/12 08:20:13;;;;;;;7.18;2.90;;;;;;;40.07;22.81;101814.81;5057587;28;20052;-76
2024/04/12 08:23:17;;;;;;;10.95;6.05;;;;;;;40.04;23.12;101809.81;5067334;28;20044;-75
2024/04/12 08:26:27;;;;;;;5.10;2.58;;;;;;;39.48;23.19;101808.53;5053005;28;20040;-77
2024/04/12 08:29:32;;;;;;;7.43;3.53;;;;;;;40.03;23.14;101812.91;5039831;28;20502;-78
2024/04/12 08:32:39;;;;;;;4.68;2.72;;;;;;;40.41;22.84;101813.91;5069617;28;20411;-76
2024/04/12 08:35:55;;;;;;;4.00;2.30;;;;;;;40.05;22.25;101817.09;5072531;28;20051;-75
2024/04/12 08:39:12;;;;;;;4.97;2.70;;;;;;;40.94;22.01;101811.94;5072688;28;20071;-75
2024/04/12 08:42:17;;;;;;;4.70;2.67;;;;;;;40.43;22.49;101806.84;5060695;28;20056;-77
2024/04/12 08:45:30;;;;;;;5.75;2.42;;;;;;;39.86;23.00;101809.66;5073246;28;20068;-77
2024/04/12 08:48:41;;;;;;;5.07;2.65;;;;;;;39.43;23.27;101808.56;5073197;28;20079;-78
2024/04/12 08:51:53;;;;;;;3.60;2.50;;;;;;;39.30;23.28;101812.88;5071311;28;20083;-77
2024/04/12 08:55:00;;;;;;;5.15;2.42;;;;;;;38.10;24.53;101811.25;5053156;28;20064;-76
2024/04/12 08:58:06;;;;;;;4.82;2.60;;;;;;;36.46;26.79;101803.78;5053154;28;20060;-77
2024/04/12 09:01:11;;;;;;;4.95;2.90;;;;;;;35.11;27.55;101799.50;5053082;28;20047;-77
2024/04/12 09:04:20;;;;;;;4.35;2.70;;;;;;;32.94;30.13;101794.22;5053099;28;20048;-76
2024/04/12 09:07:26;;;;;;;6.05;2.50;;;;;;;31.93;32.26;101800.22;5052717;28;20056;-78
2024/04/12 09:10:36;;;;;;;5.13;3.40;;;;;;;31.50;33.58;101792.19;5055585;28;20059;-75
2024/04/12 09:13:46;;;;;;;7.50;2.78;;;;;;;31.06;34.95;101798.16;5052869;28;20056;-76
2024/04/12 09:16:55;;;;;;;5.35;3.47;;;;;;;30.49;35.00;101793.94;5053407;28;20526;-75
2024/04/12 09:20:03;;;;;;;5.65;3.78;;;;;;;29.44;36.46;101798.44;5053069;28;20056;-75
2024/04/12 09:23:14;;;;;;;6.38;3.40;;;;;;;28.82;36.92;101793.66;5065573;28;20048;-75
2024/04/12 09:26:25;;;;;;;6.10;2.85;;;;;;;28.56;36.73;101801.19;5060169;28;20039;-76
2024/04/12 09:29:33;;;;;;;10.60;3.65;;;;;;;28.35;38.21;101797.63;5072725;28;20146;-76
2024/04/12 09:32:53;;;;;;;5.47;3.13;;;;;;;28.37;37.76;101791.88;5071921;28;20055;-74
2024/04/12 09:36:13;;;;;;;8.52;2.65;;;;;;;28.07;38.95;101804.47;5071758;28;20043;-75
2024/04/12 09:39:22;;;;;;;5.97;3.10;;;;;;;27.97;38.52;101790.22;5063811;28;20044;-74
2024/04/12 09:42:44;;;;;;;6.72;3.33;;;;;;;27.64;39.53;101780.03;5052778;28;20396;-74
2024/04/12 09:46:05;;;;;;;8.63;4.10;;;;;;;27.19;40.90;101780.78;5068140;28;20051;-76
2024/04/12 10:37:23;;;;;;;13.55;5.43;;;;;;;25.65;47.00;101771.22;5076547;28;20047;-73
2024/04/12 10:40:30;;;;;;;8.00;5.05;;;;;;;26.27;45.35;101766.59;5076355;28;20380;-72
2024/04/12 10:43:35;;;;;;;7.47;4.97;;;;;;;26.20;45.57;101767.59;5076540;28;20071;-74
2024/04/12 10:46:41;;;;;;;7.50;4.32;;;;;;;26.50;44.48;101771.81;5076140;28;20048;-79
2024/04/12 10:49:56;;;;;;;8.88;4.38;;;;;;;26.56;43.50;101772.91;5076151;28;20056;-77
2024/04/12 10:53:06;;;;;;;9.43;4.63;;;;;;;26.43;43.10;101754.41;5063037;28;20056;-77
2024/04/12 10:56:18;;;;;;;8.02;4.50;;;;;;;26.31;43.62;101758.78;5064578;28;20048;-77
2024/04/12 10:59:30;;;;;;;8.40;3.67;;;;;;;26.65;42.98;101758.75;5064859;28;20139;-78
2024/04/12 11:02:35;;;;;;;6.72;3.47;;;;;;;26.52;44.06;101755.09;5074123;28;20510;-82
2024/04/12 11:05:49;;;;;;;5.43;2.75;;;;;;;26.62;43.62;101750.03;5073704;28;20048;-82
2024/04/12 11:08:54;;;;;;;6.10;3.10;;;;;;;26.86;43.43;101749.53;5073457;28;20043;-79
2024/04/12 11:12:09;;;;;;;5.95;3.28;;;;;;;26.86;43.86;101744.84;5073855;28;20048;-83
2024/04/12 11:32:12;;;;;;;5.40;3.70;;;;;;;26.02;45.77;101726.84;5043405;28;20411;-76
2024/04/12 11:35:18;;;;;;;6.35;2.90;;;;;;;26.11;44.99;101722.00;5072274;28;20375;-77
2024/04/12 11:38:23;;;;;;;6.40;2.90;;;;;;;26.03;43.83;101713.91;5062573;28;20048;-76
2024/04/12 11:41:28;;;;;;;5.63;3.30;;;;;;;25.95;44.78;101722.34;5068211;28;20052;-75
2024/04/12 11:44:34;;;;;;;4.30;3.50;;;;;;;25.93;46.01;101711.50;5054094;28;20047;-76
2024/04/12 11:47:39;;;;;;;6.28;3.30;;;;;;;25.80;46.32;101714.19;5061681;28;20482;-75
2024/04/12 11:50:44;;;;;;;7.82;3.45;;;;;;;25.96;47.01;101702.84;5056226;28;20048;-78
2024/04/12 11:53:50;;;;;;;8.45;3.67;;;;;;;26.06;46.45;101703.34;5074245;28;20048;-76
2024/04/12 11:56:59;;;;;;;7.22;3.22;;;;;;;25.91;45.44;101691.59;5060803;28;20071;-77
2024/04/12 12:00:09;;;;;;;8.80;3.08;;;;;;;25.76;45.57;101697.22;5073859;28;20051;-76
2024/04/12 12:03:16;;;;;;;5.75;2.92;;;;;;;25.84;45.75;101686.06;5061707;28;20043;-76
2024/04/12 12:06:22;;;;;;;7.20;3.55;;;;;;;25.88;44.70;101688.41;5073298;28;20052;-77
2024/04/12 12:09:31;;;;;;;7.40;3.00;;;;;;;26.03;43.85;101675.38;5061232;28;20051;-76
2024/04/12 12:12:37;;;;;;;4.75;2.63;;;;;;;26.06;43.17;101677.72;5073392;28;20063;-77
2024/04/12 12:15:42;;;;;;;4.57;2.65;;;;;;;25.98;43.34;101675.13;5072048;28;20056;-76
2024/04/12 12:18:47;;;;;;;5.88;2.58;;;;;;;25.92;42.94;101674.06;5071948;28;20056;-77
2024/04/12 12:21:51;;;;;;;4.47;2.20;;;;;;;26.00;42.73;101673.88;5071925;28;20073;-76
2024/04/12 12:24:58;;;;;;;8.20;3.20;;;;;;;26.06;44.17;101673.06;5072812;28;20051;-76
2024/04/12 12:28:04;;;;;;;5.38;2.90;;;;;;;25.94;44.55;101663.69;5072527;28;20051;-76
2024/04/12 12:31:11;;;;;;;4.10;2.58;;;;;;;26.00;43.86;101662.88;5073523;28;20063;-77
2024/04/12 12:34:16;;;;;;;9.82;2.58;;;;;;;25.85;43.95;101662.13;5074422;28;20048;-77
2024/04/12 12:37:20;;;;;;;4.15;2.70;;;;;;;25.91;44.33;101655.84;5074015;28;20051;-75
2024/04/12 12:40:29;;;;;;;6.25;3.08;;;;;;;25.82;44.45;101651.56;5073397;28;20043;-78
2024/04/12 12:43:34;;;;;;;7.15;2.58;;;;;;;25.79;44.06;101640.97;5055179;28;20052;-77
2024/04/12 12:46:39;;;;;;;4.80;2.65;;;;;;;25.83;44.28;101637.59;5051395;28;20052;-76
2024/04/12 12:49:46;;;;;;;5.53;2.58;;;;;;;25.90;44.72;101640.38;5052954;28;20376;-75
2024/04/12 12:52:51;;;;;;;5.43;2.08;;;;;;;25.94;44.98;101638.94;5055143;28;20072;-76
2024/04/12 12:55:56;;;;;;;5.65;2.20;;;;;;;26.07;42.63;101633.47;5052257;28;20052;-75
2024/04/12 12:59:00;;;;;;;6.00;2.33;;;;;;;26.00;43.47;101629.00;5051877;28;20555;-78
2024/04/12 13:02:05;;;;;;;9.07;2.03;;;;;;;26.04;42.80;101616.53;5052894;28;20060;-76
2024/04/12 13:05:14;;;;;;;4.97;2.20;;;;;;;25.98;44.31;101612.69;5051818;28;20060;-76
2024/04/12 13:08:20;;;;;;;4.78;2.58;;;;;;;26.15;44.18;101614.06;5051889;28;20064;-77
2024/04/12 13:11:25;;;;;;;6.20;2.40;;;;;;;26.11;43.56;101603.63;5039753;28;20052;-76
2024/04/12 13:14:31;;;;;;;10.32;2.35;;;;;;;25.92;42.34;101596.16;5052719;28;20047;-76
2024/04/12 13:17:36;;;;;;;5.10;2.30;;;;;;;26.04;42.42;101594.50;5052003;28;20111;-75
2024/04/12 13:20:41;;;;;;;4.65;2.30;;;;;;;26.15;43.31;101588.44;5052529;28;20048;-77
2024/04/12 13:23:49;;;;;;;4.85;2.00;;;;;;;26.17;44.96;101589.94;5052514;28;20052;-78
2024/04/12 13:26:54;;;;;;;4.10;2.00;;;;;;;26.05;42.32;101579.69;5052247;28;20048;-78
2024/04/12 13:29:59;;;;;;;4.70;2.42;;;;;;;26.08;42.48;101593.88;5051952;28;20064;-75
2024/04/12 13:33:04;;;;;;;4.28;1.90;;;;;;;26.05;42.55;101577.78;5050850;28;20064;-77
2024/04/12 13:36:10;;;;;;;5.88;2.35;;;;;;;26.16;41.80;101581.88;5051904;28;20040;-78
2024/04/12 13:39:15;;;;;;;4.80;2.10;;;;;;;26.02;42.41;101572.72;5056106;28;20048;-77
2024/04/12 13:42:20;;;;;;;5.32;2.42;;;;;;;26.08;42.60;101563.63;5070885;28;20166;-76
2024/04/12 13:52:12;;;;;;;6.10;2.20;;;;;;;26.18;42.38;101558.59;5047982;28;19920;-77
2024/04/12 13:55:20;;;;;;;6.38;2.10;;;;;;;26.18;41.21;101552.25;5050940;28;20048;-77
2024/04/12 13:58:25;;;;;;;6.80;1.90;;;;;;;26.15;41.78;101548.00;5052104;28;20052;-77
2024/04/12 14:01:31;;;;;;;7.60;3.05;;;;;;;26.28;41.63;101548.03;5051442;28;20048;-77
2024/04/12 14:04:38;;;;;;;8.95;2.33;;;;;;;26.19;41.81;101540.19;5051437;28;20515;-78
2024/04/12 14:07:49;;;;;;;5.57;2.63;;;;;;;26.15;42.71;101525.13;5052117;28;20048;-77
2024/04/12 14:10:55;;;;;;;4.97;2.35;;;;;;;26.16;42.94;101533.19;5040237;28;20088;-78
2024/04/12 14:13:59;;;;;;;4.32;2.13;;;;;;;26.14;42.76;101537.22;5028309;28;20066;-77
2024/04/12 14:17:05;;;;;;;4.70;2.90;;;;;;;26.22;42.71;101524.09;5054159;28;20518;-76
2024/04/12 14:20:12;;;;;;;5.57;2.53;;;;;;;26.10;42.51;101522.97;5067108;28;20047;-77
2024/04/12 14:23:16;;;;;;;5.60;2.67;;;;;;;26.04;43.26;101522.97;5055707;28;20060;-77
2024/04/12 14:26:25;;;;;;;7.57;2.95;;;;;;;26.06;44.45;101510.69;5051166;28;20044;-76
2024/04/12 14:29:34;;;;;;;5.55;2.95;;;;;;;26.27;45.59;101520.72;5058495;28;20051;-75
2024/04/12 14:32:39;;;;;;;8.30;3.15;;;;;;;26.21;42.80;101516.91;5071501;28;20055;-78
2024/04/12 14:35:45;;;;;;;7.90;2.17;;;;;;;26.17;44.38;101518.34;5071115;28;20067;-75
2024/04/12 14:38:49;;;;;;;5.28;2.22;;;;;;;26.11;43.29;101512.81;5067624;28;20068;-76
2024/04/12 14:42:00;;;;;;;4.45;2.58;;;;;;;26.08;44.07;101505.81;5050569;28;20372;-77
2024/04/12 14:45:06;;;;;;;5.35;2.42;;;;;;;26.26;45.22;101499.75;5042836;28;20396;-77
2024/04/12 14:48:13;;;;;;;5.18;2.67;;;;;;;26.26;44.91;101499.75;5054889;28;20060;-79
2024/04/12 14:51:18;;;;;;;6.05;2.15;;;;;;;26.23;45.37;101494.66;5054532;28;20369;-77
2024/04/12 14:54:23;;;;;;;4.10;2.13;;;;;;;26.30;44.12;101490.00;5055007;28;20072;-76
2024/04/12 14:57:29;;;;;;;5.40;2.78;;;;;;;26.32;44.66;101488.75;5071995;28;20047;-78
2024/04/12 15:00:34;;;;;;;6.55;2.67;;;;;;;26.35;44.18;101487.47;5070526;28;20518;-78
2024/04/12 15:50:49;;;;;;;10.57;4.22;;;;;;;26.33;50.07;101456.56;5074340;28;20071;-83
2024/04/12 15:54:01;;;;;;;5.18;3.55;;;;;;;26.22;49.47;101458.00;5074292;28;20051;-82
2024/04/12 16:10:50;;;;;;;6.13;3.38;;;;;;;26.17;50.21;101459.72;5073285;28;20040;-80
2024/04/12 16:13:54;;;;;;;4.90;3.40;;;;;;;26.19;48.62;101452.94;5050399;28;20052;-78
2024/04/12 16:16:59;;;;;;;5.22;3.40;;;;;;;26.06;49.04;101452.91;5070248;28;20064;-78
2024/04/12 16:20:04;;;;;;;6.57;3.20;;;;;;;26.02;48.73;101453.53;5052885;28;20052;-79
2024/04/12 16:23:16;;;;;;;6.05;2.97;;;;;;;26.00;48.58;101439.94;5053710;28;20067;-80
2024/04/12 16:26:20;;;;;;;6.40;3.28;;;;;;;25.94;48.55;101443.56;5053806;28;20068;-77
2024/04/12 16:29:25;;;;;;;8.18;2.95;;;;;;;25.91;49.37;101429.34;5040712;28;20056;-79
2024/04/12 16:32:30;;;;;;;4.88;2.88;;;;;;;25.81;50.46;101438.00;5053549;28;20059;-82
2024/04/12 16:35:35;;;;;;;10.63;3.15;;;;;;;25.86;49.36;101429.97;5029974;28;20048;-77
2024/04/12 16:38:39;;;;;;;7.72;3.20;;;;;;;25.73;49.04;101428.03;5054695;28;20041;-82
2024/04/12 16:41:44;;;;;;;5.88;3.03;;;;;;;25.80;49.43;101434.41;5052070;28;20052;-83
2024/04/12 16:44:48;;;;;;;6.55;3.00;;;;;;;25.69;50.58;101431.41;5054540;28;20051;-81
2024/04/12 16:47:56;;;;;;;8.27;4.13;;;;;;;25.75;50.11;101419.59;5054121;28;20060;-76